createdAt,value
2023-03-31T00:02:06.793Z,97389.56
2023-03-31T00:04:52.028Z,97431.09
2023-03-31T00:07:37.246Z,97424.41
2023-03-31T00:10:22.753Z,97424.22
2023-03-31T00:13:08.066Z,97424.22
2023-03-31T00:15:57.648Z,97406.00
2023-03-31T00:18:42.834Z,97399.91
2023-03-31T00:21:28.796Z,97395.66
2023-03-31T00:24:15.693Z,97408.63
2023-03-31T00:27:05.239Z,97363.22
2023-03-31T00:29:51.221Z,97378.03
2023-03-31T00:32:36.563Z,97338.31
2023-03-31T00:35:21.959Z,97369.56
2023-03-31T00:38:07.455Z,97374.41
2023-03-31T00:40:53.906Z,97364.88
2023-03-31T00:43:39.353Z,97347.84
2023-03-31T00:46:33.810Z,97307.16
2023-03-31T00:49:29.976Z,97360.25
2023-03-31T00:52:19.304Z,97354.16
2023-03-31T00:55:10.070Z,97345.63
2023-03-31T00:57:56.362Z,97349.31
2023-03-31T01:00:42.432Z,97361.22
2023-03-31T01:03:29.465Z,97339.75
2023-03-31T01:06:17.549Z,97310.59
2023-03-31T01:09:03.512Z,97330.06
2023-03-31T01:11:48.741Z,97299.91
2023-03-31T01:14:35.648Z,97308.59
2023-03-31T01:17:22.793Z,97272.78
2023-03-31T01:20:34.355Z,97321.56
2023-03-31T01:23:57.556Z,97326.38
2023-03-31T01:27:01.679Z,97317.94
2023-03-31T01:29:49.422Z,97324.97
2023-03-31T01:32:37.731Z,97319.13
2023-03-31T01:35:44.110Z,97315.47
2023-03-31T01:39:07.285Z,97312.25
2023-03-31T01:42:21.332Z,97273.78
2023-03-31T01:45:12.755Z,97291.59
2023-03-31T01:48:07.346Z,97300.13
2023-03-31T01:51:03.981Z,97288.34
2023-03-31T01:54:38.959Z,97288.13
2023-03-31T01:57:41.987Z,97278.66
2023-03-31T02:00:33.103Z,97280.22
2023-03-31T02:03:24.288Z,97271.38
2023-03-31T02:06:16.146Z,97264.47
2023-03-31T02:09:06.670Z,97259.41
2023-03-31T02:11:53.791Z,97247.25
2023-03-31T02:14:43.302Z,97212.66
2023-03-31T02:17:29.018Z,97206.41
2023-03-31T02:20:20.046Z,97234.09
2023-03-31T02:23:05.570Z,97230.03
2023-03-31T02:25:53.743Z,97229.63
2023-03-31T02:28:40.650Z,97227.97
2023-03-31T02:31:31.610Z,97219.97
2023-03-31T02:34:16.944Z,97219.16
2023-03-31T02:37:02.528Z,97169.38
2023-03-31T02:39:52.062Z,97210.16
2023-03-31T02:42:39.648Z,97208.94
2023-03-31T02:45:37.296Z,97198.84
2023-03-31T02:48:47.100Z,97201.66
2023-03-31T02:52:01.025Z,97200.00
2023-03-31T02:55:10.191Z,97199.25
2023-03-31T02:58:08.942Z,97189.56
2023-03-31T03:01:11.312Z,97189.13
2023-03-31T03:04:27.274Z,97191.91
2023-03-31T03:07:12.802Z,97181.28
2023-03-31T03:10:14.644Z,97126.88
2023-03-31T03:13:21.525Z,97172.09
2023-03-31T03:16:24.915Z,97170.97
2023-03-31T03:19:21.997Z,97163.69
2023-03-31T03:22:09.180Z,97166.13
2023-03-31T03:24:54.772Z,97161.44
2023-03-31T03:27:40.929Z,97125.28
2023-03-31T03:30:26.593Z,97158.41
2023-03-31T03:33:13.097Z,97154.19
2023-03-31T03:35:59.643Z,97136.19
2023-03-31T03:38:45.099Z,97134.13
2023-03-31T03:41:30.731Z,97134.94
2023-03-31T03:44:16.266Z,97122.41
2023-03-31T03:47:02.105Z,97120.38
2023-03-31T03:49:47.182Z,97114.53
2023-03-31T03:52:32.861Z,97104.16
2023-03-31T03:55:17.996Z,97107.44
2023-03-31T03:58:03.609Z,97106.63
2023-03-31T04:00:48.987Z,97105.75
2023-03-31T04:03:34.266Z,97088.41
2023-03-31T04:06:19.622Z,97087.63
2023-03-31T04:09:04.988Z,97084.31
2023-03-31T04:11:50.256Z,97069.63
2023-03-31T04:14:35.398Z,97063.25
2023-03-31T04:17:20.573Z,97058.88
2023-03-31T04:20:08.715Z,97043.69
2023-03-31T04:22:54.171Z,97017.22
2023-03-31T04:25:39.393Z,97032.72
2023-03-31T04:28:24.488Z,97027.47
2023-03-31T04:31:10.755Z,97021.63
2023-03-31T04:33:56.738Z,97005.34
2023-03-31T04:36:44.816Z,96999.69
2023-03-31T04:39:31.019Z,96994.06
2023-03-31T04:42:16.275Z,96985.53
2023-03-31T04:45:02.174Z,96973.00
2023-03-31T04:47:47.422Z,96928.34
2023-03-31T04:50:32.753Z,96966.81
2023-03-31T04:53:18.219Z,96951.19
2023-03-31T04:56:03.765Z,96961.91
2023-03-31T04:58:49.266Z,96962.50
2023-03-31T05:01:34.493Z,96957.66
2023-03-31T05:04:19.750Z,96940.72
2023-03-31T05:07:05.205Z,96905.72
2023-03-31T05:09:50.571Z,96961.03
2023-03-31T05:12:39.230Z,96946.69
2023-03-31T05:15:25.248Z,96935.78
2023-03-31T05:18:11.394Z,96964.72
2023-03-31T05:20:56.517Z,96937.41
2023-03-31T05:23:42.174Z,96967.06
2023-03-31T05:26:27.320Z,96949.88
2023-03-31T05:29:12.762Z,96944.34
2023-03-31T05:31:58.355Z,96935.84
2023-03-31T05:34:43.515Z,96928.06
2023-03-31T05:37:28.716Z,96899.38
2023-03-31T05:40:14.217Z,96873.53
2023-03-31T05:42:59.975Z,96881.94
2023-03-31T05:45:45.198Z,96884.00
2023-03-31T05:48:30.587Z,96903.81
2023-03-31T05:51:15.846Z,96899.41
2023-03-31T05:54:01.423Z,96898.72
2023-03-31T05:56:46.667Z,96886.63
2023-03-31T05:59:32.362Z,96903.22
2023-03-31T06:02:17.792Z,96885.53
2023-03-31T06:05:06.405Z,96850.84
2023-03-31T06:07:51.493Z,96868.53
2023-03-31T06:10:38.395Z,96871.84
2023-03-31T06:13:23.920Z,96880.34
2023-03-31T06:16:11.684Z,96870.34
2023-03-31T06:18:57.379Z,96873.41
2023-03-31T06:21:42.995Z,96872.72
2023-03-31T06:24:28.403Z,96858.88
2023-03-31T06:27:13.773Z,96844.53
2023-03-31T06:29:59.111Z,96845.19
2023-03-31T06:32:44.773Z,96850.06
2023-03-31T06:35:30.487Z,96850.22
2023-03-31T06:38:15.889Z,96847.84
2023-03-31T06:41:02.490Z,96841.69
2023-03-31T06:43:47.714Z,96853.72
2023-03-31T06:46:33.358Z,96851.78
2023-03-31T06:49:19.063Z,96849.13
2023-03-31T06:52:04.567Z,96840.25
2023-03-31T06:54:50.206Z,96833.03
2023-03-31T06:57:35.493Z,96769.88
2023-03-31T07:00:22.986Z,96843.63
2023-03-31T07:03:08.739Z,96840.88
2023-03-31T07:05:55.114Z,96825.44
2023-03-31T07:08:40.353Z,96830.69
2023-03-31T07:11:25.828Z,96826.09
2023-03-31T07:14:10.951Z,96816.03
2023-03-31T07:16:56.517Z,96819.91
2023-03-31T07:19:41.731Z,96818.38
2023-03-31T07:22:27.307Z,96803.84
2023-03-31T07:25:15.682Z,96793.22
2023-03-31T07:28:01.126Z,96784.16
2023-03-31T07:30:46.653Z,96801.81
2023-03-31T07:33:31.988Z,96800.06
2023-03-31T07:36:17.920Z,96804.03
2023-03-31T07:39:05.932Z,96795.72
2023-03-31T07:41:51.233Z,96787.97
2023-03-31T07:44:37.000Z,96785.16
2023-03-31T07:47:22.501Z,96783.25
2023-03-31T07:50:08.336Z,96772.28
2023-03-31T07:52:53.892Z,96754.78
2023-03-31T07:55:39.558Z,96724.47
2023-03-31T07:58:24.698Z,96750.28
2023-03-31T08:01:10.186Z,96742.00
2023-03-31T08:03:55.592Z,96733.53
2023-03-31T08:06:40.964Z,96736.75
2023-03-31T08:09:26.430Z,96742.47
2023-03-31T08:12:13.628Z,96727.22
2023-03-31T08:14:59.166Z,96728.94
2023-03-31T08:17:44.617Z,96664.63
2023-03-31T08:20:30.199Z,96666.63
2023-03-31T08:23:15.974Z,96713.94
2023-03-31T08:26:14.502Z,96711.75
2023-03-31T08:29:01.827Z,96706.59
2023-03-31T08:31:47.111Z,96705.84
2023-03-31T08:34:32.847Z,96702.31
2023-03-31T08:37:18.448Z,96693.31
2023-03-31T08:40:05.809Z,96693.31
2023-03-31T08:42:55.720Z,96634.28
2023-03-31T08:45:47.716Z,96656.47
2023-03-31T08:48:39.069Z,96693.06
2023-03-31T08:51:29.111Z,96677.78
2023-03-31T08:54:42.443Z,96676.13
2023-03-31T08:57:33.611Z,96675.53
2023-03-31T09:00:20.054Z,96674.31
2023-03-31T09:03:22.367Z,96664.75
2023-03-31T09:06:30.405Z,96637.56
2023-03-31T09:09:36.752Z,96667.72
2023-03-31T09:12:31.047Z,96658.88
2023-03-31T09:15:43.178Z,96657.59
2023-03-31T09:18:37.358Z,96656.94
2023-03-31T09:21:46.860Z,96664.38
2023-03-31T09:24:36.764Z,96655.66
2023-03-31T09:27:26.305Z,96649.81
2023-03-31T09:30:29.123Z,96647.97
2023-03-31T09:33:23.739Z,96645.63
2023-03-31T09:36:18.330Z,96609.81
2023-03-31T09:39:05.004Z,96624.56
2023-03-31T09:41:52.257Z,96610.97
2023-03-31T09:44:44.554Z,96559.56
2023-03-31T09:47:37.719Z,96600.03
2023-03-31T09:50:25.124Z,96596.22
2023-03-31T09:53:43.425Z,96586.41
2023-03-31T09:56:33.471Z,96595.16
2023-03-31T09:59:43.734Z,96587.25
2023-03-31T10:02:37.345Z,96573.50
2023-03-31T10:05:52.726Z,96579.72
2023-03-31T10:08:41.510Z,96565.84
2023-03-31T10:11:27.750Z,96575.38
2023-03-31T10:14:15.054Z,96571.25
2023-03-31T10:17:04.787Z,96561.63
2023-03-31T10:20:06.473Z,96550.63
2023-03-31T10:22:51.776Z,96555.66
2023-03-31T10:25:36.944Z,96552.00
2023-03-31T10:28:23.004Z,96542.25
2023-03-31T10:31:08.980Z,96545.63
2023-03-31T10:33:55.926Z,96528.41
2023-03-31T10:36:47.272Z,96526.09
2023-03-31T10:39:32.875Z,96528.50
2023-03-31T10:42:23.596Z,96457.47
2023-03-31T10:45:36.301Z,96517.78
2023-03-31T10:48:37.389Z,96521.09
2023-03-31T10:51:27.829Z,96515.72
2023-03-31T10:54:13.168Z,96522.53
2023-03-31T10:57:00.464Z,96506.84
2023-03-31T11:00:04.587Z,96515.88
2023-03-31T11:03:01.900Z,96506.88
2023-03-31T11:06:03.869Z,96492.47
2023-03-31T11:08:55.118Z,96494.19
2023-03-31T11:12:01.683Z,96490.34
2023-03-31T11:14:53.064Z,96483.41
2023-03-31T11:17:47.624Z,96482.22
2023-03-31T11:20:57.819Z,96478.44
2023-03-31T11:24:10.515Z,96472.78
2023-03-31T11:27:16.170Z,96438.97
2023-03-31T11:30:18.094Z,96469.94
2023-03-31T11:33:45.426Z,96420.44
2023-03-31T11:36:30.798Z,96468.53
2023-03-31T11:39:35.254Z,96449.44
2023-03-31T11:42:29.326Z,96453.88
2023-03-31T11:45:23.042Z,96439.47
2023-03-31T11:48:43.238Z,96383.00
2023-03-31T11:51:37.959Z,96435.69
2023-03-31T11:54:38.989Z,96442.09
2023-03-31T11:57:41.804Z,96445.84
2023-03-31T12:00:36.345Z,96435.81
2023-03-31T12:03:36.921Z,96444.69
2023-03-31T12:06:28.131Z,96436.81
2023-03-31T12:09:27.524Z,96433.50
2023-03-31T12:12:19.962Z,96393.94
2023-03-31T12:15:19.324Z,96439.78
2023-03-31T12:18:18.275Z,96442.34
2023-03-31T12:21:05.277Z,96438.50
2023-03-31T12:23:50.818Z,96467.78
2023-03-31T12:26:51.737Z,96461.22
2023-03-31T12:29:43.220Z,96460.38
2023-03-31T12:32:34.652Z,96475.41
2023-03-31T12:35:27.921Z,96464.59
2023-03-31T12:38:29.472Z,96474.81
2023-03-31T12:41:37.454Z,96473.56
2023-03-31T12:44:45.544Z,96484.97
2023-03-31T12:47:40.363Z,96484.25
2023-03-31T12:50:34.761Z,96490.91
2023-03-31T12:53:35.337Z,96486.91
2023-03-31T12:56:20.731Z,96492.97
2023-03-31T12:59:24.604Z,96478.66
2023-03-31T13:02:10.363Z,96494.00
2023-03-31T13:04:55.574Z,96499.84
2023-03-31T13:07:42.627Z,96493.00
2023-03-31T13:10:32.034Z,96480.63
2023-03-31T13:13:18.638Z,96478.31
2023-03-31T13:16:03.937Z,96464.59
2023-03-31T13:18:54.761Z,96455.56
2023-03-31T13:22:28.631Z,96446.75
2023-03-31T13:25:56.437Z,96442.28
2023-03-31T13:28:43.299Z,96427.00
2023-03-31T13:32:00.531Z,96444.56
2023-03-31T13:34:51.908Z,96451.22
2023-03-31T13:38:00.603Z,96456.63
2023-03-31T13:40:47.307Z,96459.34
2023-03-31T13:44:17.046Z,96467.19
2023-03-31T13:47:24.083Z,96457.91
2023-03-31T13:50:28.393Z,96458.94
2023-03-31T13:53:16.846Z,96461.81
2023-03-31T13:56:29.265Z,96453.56
2023-03-31T13:59:33.743Z,96451.53
2023-03-31T14:02:24.921Z,96454.50
2023-03-31T14:05:23.942Z,96450.72
2023-03-31T14:08:35.640Z,96451.28
2023-03-31T14:11:27.192Z,96450.03
2023-03-31T14:14:15.375Z,96458.00
2023-03-31T14:17:03.180Z,96378.88
2023-03-31T14:20:25.862Z,96453.31
2023-03-31T14:23:41.198Z,96449.31
2023-03-31T14:26:38.156Z,96444.84
2023-03-31T14:29:44.097Z,96439.44
2023-03-31T14:32:59.240Z,96415.25
2023-03-31T14:36:09.334Z,96440.94
2023-03-31T14:39:02.251Z,96427.38
2023-03-31T14:41:56.331Z,96424.06
2023-03-31T14:44:43.802Z,96412.50
2023-03-31T14:47:32.828Z,96431.75
2023-03-31T14:50:19.173Z,96424.03
2023-03-31T14:53:13.632Z,96433.13
2023-03-31T14:56:07.222Z,96474.47
2023-03-31T14:58:54.194Z,96385.25
2023-03-31T15:01:39.908Z,96403.78
2023-03-31T15:04:41.502Z,96405.34
2023-03-31T15:07:27.810Z,96412.78
2023-03-31T15:10:19.101Z,96386.19
2023-03-31T15:13:15.563Z,96393.66
2023-03-31T15:16:19.997Z,96395.41
2023-03-31T15:19:13.819Z,96400.63
2023-03-31T15:21:58.921Z,96401.44
2023-03-31T15:24:45.102Z,96389.69
2023-03-31T15:27:38.919Z,96401.47
2023-03-31T15:30:26.988Z,96409.09
2023-03-31T15:33:23.807Z,96397.34
2023-03-31T15:36:11.970Z,96371.19
2023-03-31T15:38:59.200Z,96422.25
2023-03-31T15:41:47.968Z,96398.22
2023-03-31T15:44:45.828Z,96426.63
2023-03-31T15:47:33.396Z,96404.66
2023-03-31T15:50:22.078Z,96423.50
2023-03-31T15:53:29.840Z,96426.47
2023-03-31T15:56:32.537Z,96436.94
2023-03-31T15:59:34.304Z,96425.25
2023-03-31T16:02:42.328Z,96426.41
2023-03-31T16:05:54.514Z,96416.31
2023-03-31T16:08:48.673Z,96406.66
2023-03-31T16:11:39.269Z,96398.94
2023-03-31T16:14:48.494Z,96369.16
2023-03-31T16:17:39.099Z,96379.75
2023-03-31T16:20:28.637Z,96385.03
2023-03-31T16:23:20.893Z,96385.97
2023-03-31T16:26:06.702Z,96397.31
2023-03-31T16:28:53.646Z,96407.13
2023-03-31T16:31:40.672Z,96405.09
2023-03-31T16:34:31.446Z,96414.97
2023-03-31T16:37:17.010Z,96412.53
2023-03-31T16:40:02.543Z,96342.97
2023-03-31T16:42:48.070Z,96429.69
2023-03-31T16:45:33.264Z,96422.00
2023-03-31T16:48:20.626Z,96425.00
2023-03-31T16:51:05.827Z,96423.97
2023-03-31T16:53:53.583Z,96426.72
2023-03-31T16:56:38.949Z,96425.03
2023-03-31T16:59:24.627Z,96437.75
2023-03-31T17:02:11.249Z,96455.63
2023-03-31T17:05:02.677Z,96453.81
2023-03-31T17:07:51.689Z,96458.03
2023-03-31T17:10:39.134Z,96461.72
2023-03-31T17:13:24.634Z,96453.50
2023-03-31T17:16:17.323Z,96455.53
2023-03-31T17:19:04.461Z,96466.97
2023-03-31T17:21:50.362Z,96467.22
2023-03-31T17:24:35.862Z,96463.44
2023-03-31T17:27:21.361Z,96443.72
2023-03-31T17:30:07.244Z,96459.88
2023-03-31T17:32:52.974Z,96449.59
2023-03-31T17:35:38.401Z,96453.81
2023-03-31T17:38:23.738Z,96444.75
2023-03-31T17:41:11.890Z,96465.25
2023-03-31T17:43:57.881Z,96456.53
2023-03-31T17:46:43.352Z,96451.59
2023-03-31T17:49:28.899Z,96447.56
2023-03-31T17:52:14.031Z,96414.00
2023-03-31T17:54:59.632Z,96461.22
2023-03-31T17:57:45.345Z,96465.47
2023-03-31T18:00:30.728Z,96463.75
2023-03-31T18:03:15.851Z,96463.94
2023-03-31T18:06:09.528Z,96466.97
2023-03-31T18:08:56.458Z,96451.63
2023-03-31T18:11:41.959Z,96458.72
2023-03-31T18:14:27.341Z,96468.63
2023-03-31T18:17:12.759Z,96468.69
2023-03-31T18:19:58.463Z,96473.81
2023-03-31T18:22:44.378Z,96470.44
2023-03-31T18:25:29.761Z,96475.59
2023-03-31T18:28:16.954Z,96440.50
2023-03-31T18:31:09.907Z,96475.16
2023-03-31T18:33:55.641Z,96480.66
2023-03-31T18:36:40.947Z,96487.28
2023-03-31T18:39:26.054Z,96487.03
2023-03-31T18:42:11.091Z,96489.91
2023-03-31T18:44:56.499Z,96486.78
2023-03-31T18:47:42.148Z,96489.75
2023-03-31T18:50:27.857Z,96484.28
2023-03-31T18:53:13.349Z,96491.94
2023-03-31T18:55:59.676Z,96462.66
2023-03-31T18:58:45.971Z,96497.66
2023-03-31T19:01:31.700Z,96494.94
2023-03-31T19:04:16.904Z,96489.03
2023-03-31T19:07:02.855Z,96485.50
2023-03-31T19:09:48.145Z,96494.66
2023-03-31T19:12:33.547Z,96470.34
2023-03-31T19:15:19.152Z,96477.72
2023-03-31T19:18:04.748Z,96479.97
2023-03-31T19:20:50.279Z,96484.75
2023-03-31T19:23:36.043Z,96482.25
2023-03-31T19:26:22.538Z,96476.47
2023-03-31T19:29:08.265Z,96484.84
2023-03-31T19:31:55.923Z,96481.06
2023-03-31T19:34:41.933Z,96428.38
2023-03-31T19:37:27.509Z,96477.25
2023-03-31T19:40:13.436Z,96478.34
2023-03-31T19:42:59.743Z,96480.34
2023-03-31T19:45:45.744Z,96482.03
2023-03-31T19:48:31.477Z,96480.03
2023-03-31T19:51:17.434Z,96468.50
2023-03-31T19:54:02.972Z,96474.06
2023-03-31T19:56:48.178Z,96476.13
2023-03-31T19:59:33.575Z,96473.25
2023-03-31T20:02:19.394Z,96471.72
2023-03-31T20:05:05.717Z,96466.63
2023-03-31T20:07:51.123Z,96474.56
2023-03-31T20:10:36.646Z,96467.63
2023-03-31T20:13:24.630Z,96462.03
2023-03-31T20:16:22.120Z,96453.16
2023-03-31T20:19:08.072Z,96456.88
2023-03-31T20:21:53.645Z,96446.13
2023-03-31T20:24:39.152Z,96458.31
2023-03-31T20:27:24.280Z,96458.53
2023-03-31T20:30:10.204Z,96441.81
2023-03-31T20:32:55.602Z,96460.00
2023-03-31T20:35:40.732Z,96455.31
2023-03-31T20:38:25.965Z,96450.25
2023-03-31T20:41:11.893Z,96452.50
2023-03-31T20:43:58.139Z,96458.78
2023-03-31T20:46:44.471Z,96462.94
2023-03-31T20:49:29.940Z,96448.59
2023-03-31T20:52:15.532Z,96457.94
2023-03-31T20:55:00.863Z,96473.28
2023-03-31T20:57:46.789Z,96468.97
2023-03-31T21:00:32.041Z,96467.84
2023-03-31T21:03:17.244Z,96460.34
2023-03-31T21:06:05.109Z,96439.25
2023-03-31T21:08:53.758Z,96464.44
2023-03-31T21:11:39.576Z,96474.19
2023-03-31T21:14:25.124Z,96418.38
2023-03-31T21:17:10.253Z,96483.03
2023-03-31T21:19:55.712Z,96474.72
2023-03-31T21:22:41.603Z,96484.41
2023-03-31T21:25:28.151Z,96475.69
2023-03-31T21:28:13.604Z,96483.88
2023-03-31T21:31:13.301Z,96464.19
2023-03-31T21:33:58.621Z,96484.94
2023-03-31T21:36:44.170Z,96472.03
2023-03-31T21:43:36.069Z,96480.13
2023-03-31T21:46:27.516Z,96475.59
2023-03-31T21:49:12.938Z,96480.56
2023-03-31T21:51:57.999Z,96481.50
2023-03-31T21:54:43.354Z,96473.19
2023-03-31T21:57:28.479Z,96475.13
2023-03-31T22:00:14.069Z,96474.19
2023-03-31T22:03:16.423Z,96478.53
2023-03-31T22:06:06.865Z,96472.69
2023-03-31T22:08:52.257Z,96474.16
2023-03-31T22:11:37.792Z,96421.19
2023-03-31T22:14:23.096Z,96472.97
2023-03-31T22:17:08.427Z,96468.31
2023-03-31T22:19:54.475Z,96465.97
2023-03-31T22:22:39.999Z,96473.66
2023-03-31T22:25:25.371Z,96468.00
2023-03-31T22:28:16.612Z,96468.44
2023-03-31T22:31:02.138Z,96475.31
2023-03-31T22:33:47.982Z,96473.84
2023-03-31T22:36:33.279Z,96478.06
2023-03-31T22:39:18.585Z,96473.28
2023-03-31T22:42:03.816Z,96456.50
2023-03-31T22:44:49.095Z,96452.47
2023-03-31T22:47:34.404Z,96475.00
2023-03-31T22:50:19.541Z,96470.50
2023-03-31T22:53:04.988Z,96476.25
2023-03-31T22:55:54.338Z,96463.50
2023-03-31T22:58:40.101Z,96471.66
2023-03-31T23:01:25.409Z,96476.75
2023-03-31T23:04:10.851Z,96453.69
2023-03-31T23:06:56.254Z,96446.06
2023-03-31T23:09:41.529Z,96473.44
2023-03-31T23:12:28.071Z,96468.59
2023-03-31T23:15:13.391Z,96479.22
2023-03-31T23:17:58.791Z,96476.78
2023-03-31T23:20:43.946Z,96476.25
2023-03-31T23:23:29.270Z,96476.91
2023-03-31T23:26:14.677Z,96481.66
2023-03-31T23:29:01.267Z,96469.75
2023-03-31T23:31:46.593Z,96470.78
2023-03-31T23:34:32.175Z,96450.66
2023-03-31T23:37:17.424Z,96457.97
2023-03-31T23:40:03.041Z,96425.78
2023-03-31T23:42:48.519Z,96466.47
2023-03-31T23:45:34.207Z,96476.03
2023-03-31T23:48:19.535Z,96471.88
2023-03-31T23:51:07.582Z,96476.16
2023-03-31T23:53:53.034Z,96465.53
2023-03-31T23:56:38.252Z,96467.53
2023-03-31T23:59:23.416Z,96465.59
